METAR Data
IDs: Format: Raw Decoded Include TAF

Data at: 1401 UTC 27 Nov 2021

ESSD 271350Z AUTO 00000KT 9999 SCT009/// BKN011/// OVC018/// M04/M05 Q1004